TimeGMT,TemperatureF,Dew PointF,Humidity,Sea Level PressureIn,VisibilityMPH,Wind Direction,Wind SpeedMPH,Gust SpeedMPH,PrecipitationIn,Events,Conditions,WindDirDegrees,DateUTC
12:56 AM,72.9,54.9,53,30.93,6.0,North,10.4,-,N/A,,Haze,350,2013-12-05 00:56:00
1:56 AM,72.0,52.0,49,30.94,7.0,NNW,12.7,-,N/A,,Clear,340,2013-12-05 01:56:00
2:56 AM,70.0,54.0,57,30.96,7.0,North,13.8,19.6,N/A,,Scattered Clouds,350,2013-12-05 02:56:00
3:56 AM,68.9,52.9,57,30.97,8.0,North,10.4,-,N/A,,Clear,350,2013-12-05 03:56:00
4:56 AM,68.0,54.9,63,30.98,6.0,North,9.2,16.1,N/A,,Haze,360,2013-12-05 04:56:00
5:56 AM,68.0,54.9,63,31.00,7.0,North,10.4,18.4,N/A,,Partly Cloudy,360,2013-12-05 05:56:00
6:56 AM,68.0,52.0,56,31.02,7.0,North,11.5,16.1,N/A,,Partly Cloudy,360,2013-12-05 06:56:00
7:56 AM,66.9,50.9,56,31.05,8.0,North,11.5,16.1,N/A,,Partly Cloudy,360,2013-12-05 07:56:00
8:56 AM,66.9,48.9,52,31.06,9.0,North,6.9,-,N/A,,Clear,360,2013-12-05 08:56:00
9:56 AM,66.9,50.0,54,31.06,-9999.0,NNE,8.1,-,N/A,,Mostly Cloudy,20,2013-12-05 09:56:00
10:56 AM,66.9,52.0,59,31.06,-9999.0,NNE,8.1,-,N/A,,Mostly Cloudy,20,2013-12-05 10:56:00
11:56 AM,65.8,50.9,58,31.03,-9999.0,NNE,4.6,-,N/A,,Mostly Cloudy,30,2013-12-05 11:56:00
12:56 PM,66.9,48.9,52,31.04,-9999.0,NNE,8.1,-,N/A,,Clear,30,2013-12-05 12:56:00
1:56 PM,66.9,52.9,61,31.04,-9999.0,NE,8.1,-,N/A,,Mostly Cloudy,40,2013-12-05 13:56:00
2:56 PM,66.9,50.9,56,31.05,-9999.0,NE,6.9,-,N/A,,Mostly Cloudy,40,2013-12-05 14:56:00
3:56 PM,66.9,52.0,59,31.04,-9999.0,NE,12.7,16.1,N/A,,Mostly Cloudy,50,2013-12-05 15:56:00
4:56 PM,66.9,52.9,61,31.06,9.0,NE,10.4,-,N/A,,Scattered Clouds,40,2013-12-05 16:56:00
5:56 PM,66.9,50.9,56,31.09,9.0,NE,9.2,17.3,N/A,,Scattered Clouds,50,2013-12-05 17:56:00
6:56 PM,66.9,52.9,61,31.10,8.0,NE,13.8,-,N/A,,Scattered Clouds,50,2013-12-05 18:56:00
7:56 PM,68.0,52.9,58,31.11,7.0,ENE,15.0,-,N/A,,Partly Cloudy,60,2013-12-05 19:56:00
8:56 PM,68.9,52.0,55,31.14,8.0,ENE,12.7,17.3,N/A,,Clear,70,2013-12-05 20:56:00
9:56 PM,72.0,54.9,55,31.12,9.0,ENE,11.5,-,N/A,,Partly Cloudy,70,2013-12-05 21:56:00
10:56 PM,68.9,54.0,59,31.10,8.0,ENE,12.7,-,N/A,,Partly Cloudy,70,2013-12-05 22:56:00
11:56 PM,70.0,52.0,53,31.08,9.0,ENE,11.5,20.7,0.00,,Clear,70,2013-12-05 23:56:00